sensor_id;sensor_type;location;lat;lon;timestamp;P1;durP1;ratioP1;P2;durP2;ratioP2
68212;SDS011;55035;47.792;8.724;2022-12-05T00:01:29;16.45;;;5.93;;
68212;SDS011;55035;47.792;8.724;2022-12-05T00:03:57;20.88;;;6.32;;
68212;SDS011;55035;47.792;8.724;2022-12-05T00:06:24;21.50;;;7.85;;
68212;SDS011;55035;47.792;8.724;2022-12-05T00:08:51;19.42;;;6.65;;
68212;SDS011;55035;47.792;8.724;2022-12-05T00:11:19;23.57;;;8.03;;
68212;SDS011;55035;47.792;8.724;2022-12-05T00:13:46;24.45;;;7.35;;
68212;SDS011;55035;47.792;8.724;2022-12-05T00:16:15;24.00;;;7.65;;
68212;SDS011;55035;47.792;8.724;2022-12-05T00:18:44;15.90;;;5.63;;
68212;SDS011;55035;47.792;8.724;2022-12-05T00:21:11;22.40;;;7.78;;
68212;SDS011;55035;47.792;8.724;2022-12-05T00:23:38;10.97;;;4.70;;
68212;SDS011;55035;47.792;8.724;2022-12-05T00:26:05;19.02;;;6.53;;
68212;SDS011;55035;47.792;8.724;2022-12-05T00:28:32;22.33;;;6.85;;
68212;SDS011;55035;47.792;8.724;2022-12-05T00:31:00;17.20;;;6.13;;
68212;SDS011;55035;47.792;8.724;2022-12-05T00:33:27;18.60;;;6.47;;
68212;SDS011;55035;47.792;8.724;2022-12-05T00:35:56;19.47;;;7.60;;
68212;SDS011;55035;47.792;8.724;2022-12-05T00:38:26;21.60;;;6.50;;
68212;SDS011;55035;47.792;8.724;2022-12-05T00:40:53;20.60;;;6.65;;
68212;SDS011;55035;47.792;8.724;2022-12-05T00:43:20;18.98;;;6.72;;
68212;SDS011;55035;47.792;8.724;2022-12-05T00:45:47;17.73;;;6.40;;
68212;SDS011;55035;47.792;8.724;2022-12-05T00:48:13;19.83;;;6.40;;
68212;SDS011;55035;47.792;8.724;2022-12-05T00:50:40;20.33;;;6.53;;
68212;SDS011;55035;47.792;8.724;2022-12-05T00:53:08;21.98;;;7.20;;
68212;SDS011;55035;47.792;8.724;2022-12-05T00:55:35;19.05;;;7.25;;
68212;SDS011;55035;47.792;8.724;2022-12-05T00:58:02;19.95;;;7.47;;
68212;SDS011;55035;47.792;8.724;2022-12-05T01:00:29;15.10;;;5.17;;
68212;SDS011;55035;47.792;8.724;2022-12-05T01:02:56;18.42;;;6.32;;
68212;SDS011;55035;47.792;8.724;2022-12-05T01:05:23;20.42;;;7.10;;
68212;SDS011;55035;47.792;8.724;2022-12-05T01:07:50;24.80;;;8.48;;
68212;SDS011;55035;47.792;8.724;2022-12-05T01:10:18;23.13;;;8.15;;
68212;SDS011;55035;47.792;8.724;2022-12-05T01:12:45;24.20;;;8.17;;
68212;SDS011;55035;47.792;8.724;2022-12-05T01:15:12;20.90;;;7.00;;
68212;SDS011;55035;47.792;8.724;2022-12-05T01:17:39;15.93;;;5.85;;
68212;SDS011;55035;47.792;8.724;2022-12-05T01:20:06;16.20;;;5.75;;
68212;SDS011;55035;47.792;8.724;2022-12-05T01:22:33;21.52;;;6.50;;
68212;SDS011;55035;47.792;8.724;2022-12-05T01:25:00;18.13;;;5.50;;
68212;SDS011;55035;47.792;8.724;2022-12-05T01:27:28;28.48;;;8.65;;
68212;SDS011;55035;47.792;8.724;2022-12-05T01:29:56;32.05;;;9.10;;
68212;SDS011;55035;47.792;8.724;2022-12-05T01:32:23;24.48;;;8.90;;
68212;SDS011;55035;47.792;8.724;2022-12-05T01:34:50;26.02;;;9.00;;
68212;SDS011;55035;47.792;8.724;2022-12-05T01:37:17;23.50;;;6.77;;
68212;SDS011;55035;47.792;8.724;2022-12-05T01:39:44;24.65;;;8.10;;
68212;SDS011;55035;47.792;8.724;2022-12-05T01:42:10;28.52;;;9.60;;
68212;SDS011;55035;47.792;8.724;2022-12-05T01:44:59;31.67;;;9.65;;
68212;SDS011;55035;47.792;8.724;2022-12-05T01:47:29;29.65;;;9.10;;
68212;SDS011;55035;47.792;8.724;2022-12-05T01:49:57;34.20;;;9.70;;
68212;SDS011;55035;47.792;8.724;2022-12-05T01:52:24;20.67;;;7.00;;
68212;SDS011;55035;47.792;8.724;2022-12-05T01:54:53;29.42;;;9.15;;
68212;SDS011;55035;47.792;8.724;2022-12-05T01:57:21;28.30;;;8.48;;
68212;SDS011;55035;47.792;8.724;2022-12-05T01:59:49;32.63;;;10.00;;
68212;SDS011;55035;47.792;8.724;2022-12-05T02:02:18;25.47;;;9.20;;
68212;SDS011;55035;47.792;8.724;2022-12-05T02:04:47;31.23;;;9.82;;
68212;SDS011;55035;47.792;8.724;2022-12-05T02:07:16;32.25;;;9.52;;
68212;SDS011;55035;47.792;8.724;2022-12-05T02:09:43;31.40;;;9.18;;
68212;SDS011;55035;47.792;8.724;2022-12-05T02:12:11;29.48;;;10.00;;
68212;SDS011;55035;47.792;8.724;2022-12-05T02:14:40;33.60;;;10.70;;
68212;SDS011;55035;47.792;8.724;2022-12-05T02:17:10;28.50;;;9.00;;
68212;SDS011;55035;47.792;8.724;2022-12-05T02:22:39;33.65;;;10.50;;
68212;SDS011;55035;47.792;8.724;2022-12-05T02:25:21;34.28;;;10.77;;
68212;SDS011;55035;47.792;8.724;2022-12-05T02:28:07;30.93;;;9.80;;
68212;SDS011;55035;47.792;8.724;2022-12-05T02:30:40;33.85;;;10.30;;
68212;SDS011;55035;47.792;8.724;2022-12-05T02:33:09;24.80;;;9.05;;
68212;SDS011;55035;47.792;8.724;2022-12-05T02:35:39;34.70;;;11.43;;
68212;SDS011;55035;47.792;8.724;2022-12-05T02:38:13;34.53;;;10.68;;
68212;SDS011;55035;47.792;8.724;2022-12-05T02:40:42;39.67;;;11.60;;
68212;SDS011;55035;47.792;8.724;2022-12-05T02:43:14;36.22;;;10.95;;
68212;SDS011;55035;47.792;8.724;2022-12-05T02:45:43;36.67;;;10.98;;
68212;SDS011;55035;47.792;8.724;2022-12-05T02:48:12;31.70;;;10.60;;
68212;SDS011;55035;47.792;8.724;2022-12-05T02:50:40;35.95;;;11.30;;
68212;SDS011;55035;47.792;8.724;2022-12-05T02:53:08;33.00;;;10.17;;
68212;SDS011;55035;47.792;8.724;2022-12-05T02:55:36;29.90;;;9.85;;
68212;SDS011;55035;47.792;8.724;2022-12-05T02:58:04;41.15;;;11.23;;
68212;SDS011;55035;47.792;8.724;2022-12-05T03:00:33;37.50;;;10.93;;
68212;SDS011;55035;47.792;8.724;2022-12-05T03:03:05;32.95;;;10.75;;
68212;SDS011;55035;47.792;8.724;2022-12-05T03:05:36;30.17;;;10.03;;
68212;SDS011;55035;47.792;8.724;2022-12-05T03:08:09;32.08;;;10.15;;
68212;SDS011;55035;47.792;8.724;2022-12-05T03:10:38;35.58;;;10.70;;
68212;SDS011;55035;47.792;8.724;2022-12-05T03:13:07;31.85;;;10.20;;
68212;SDS011;55035;47.792;8.724;2022-12-05T03:15:36;34.08;;;11.00;;
68212;SDS011;55035;47.792;8.724;2022-12-05T03:18:06;32.27;;;11.57;;
68212;SDS011;55035;47.792;8.724;2022-12-05T03:20:35;33.42;;;10.60;;
68212;SDS011;55035;47.792;8.724;2022-12-05T03:23:05;32.13;;;11.02;;
68212;SDS011;55035;47.792;8.724;2022-12-05T03:25:37;34.78;;;10.20;;
68212;SDS011;55035;47.792;8.724;2022-12-05T03:28:06;31.38;;;10.20;;
68212;SDS011;55035;47.792;8.724;2022-12-05T03:30:37;32.83;;;11.70;;
68212;SDS011;55035;47.792;8.724;2022-12-05T03:33:06;30.38;;;10.50;;
68212;SDS011;55035;47.792;8.724;2022-12-05T03:35:38;32.63;;;11.32;;
68212;SDS011;55035;47.792;8.724;2022-12-05T03:38:08;32.63;;;11.02;;
68212;SDS011;55035;47.792;8.724;2022-12-05T03:40:38;30.95;;;10.32;;
68212;SDS011;55035;47.792;8.724;2022-12-05T03:43:08;33.73;;;11.00;;
68212;SDS011;55035;47.792;8.724;2022-12-05T03:45:37;36.20;;;10.68;;
68212;SDS011;55035;47.792;8.724;2022-12-05T03:48:08;33.40;;;10.55;;
68212;SDS011;55035;47.792;8.724;2022-12-05T03:50:36;28.45;;;9.43;;
68212;SDS011;55035;47.792;8.724;2022-12-05T03:53:05;31.50;;;10.68;;
68212;SDS011;55035;47.792;8.724;2022-12-05T03:55:34;31.07;;;9.77;;
68212;SDS011;55035;47.792;8.724;2022-12-05T03:58:04;34.92;;;10.68;;
68212;SDS011;55035;47.792;8.724;2022-12-05T04:00:33;34.75;;;10.77;;
68212;SDS011;55035;47.792;8.724;2022-12-05T04:03:03;31.23;;;10.60;;
68212;SDS011;55035;47.792;8.724;2022-12-05T04:05:31;30.75;;;10.25;;
68212;SDS011;55035;47.792;8.724;2022-12-05T04:08:01;28.93;;;10.30;;
68212;SDS011;55035;47.792;8.724;2022-12-05T04:10:31;32.88;;;10.88;;
68212;SDS011;55035;47.792;8.724;2022-12-05T04:13:13;26.85;;;9.73;;
68212;SDS011;55035;47.792;8.724;2022-12-05T04:15:44;29.40;;;11.18;;
68212;SDS011;55035;47.792;8.724;2022-12-05T04:18:49;25.75;;;10.02;;
68212;SDS011;55035;47.792;8.724;2022-12-05T04:21:18;28.87;;;10.20;;
68212;SDS011;55035;47.792;8.724;2022-12-05T04:24:04;32.33;;;10.60;;
68212;SDS011;55035;47.792;8.724;2022-12-05T04:26:52;29.00;;;9.82;;
68212;SDS011;55035;47.792;8.724;2022-12-05T04:29:22;25.10;;;9.32;;
68212;SDS011;55035;47.792;8.724;2022-12-05T04:31:51;27.35;;;10.32;;
68212;SDS011;55035;47.792;8.724;2022-12-05T04:34:21;29.00;;;9.57;;
68212;SDS011;55035;47.792;8.724;2022-12-05T04:36:51;29.10;;;9.95;;
68212;SDS011;55035;47.792;8.724;2022-12-05T04:39:21;25.90;;;9.73;;
68212;SDS011;55035;47.792;8.724;2022-12-05T04:41:49;30.27;;;9.48;;
68212;SDS011;55035;47.792;8.724;2022-12-05T04:44:17;27.88;;;10.50;;
68212;SDS011;55035;47.792;8.724;2022-12-05T04:46:45;28.07;;;9.83;;
68212;SDS011;55035;47.792;8.724;2022-12-05T04:49:15;27.25;;;9.75;;
68212;SDS011;55035;47.792;8.724;2022-12-05T04:51:43;26.33;;;8.93;;
68212;SDS011;55035;47.792;8.724;2022-12-05T04:54:12;28.55;;;10.25;;
68212;SDS011;55035;47.792;8.724;2022-12-05T04:56:41;29.15;;;10.10;;
68212;SDS011;55035;47.792;8.724;2022-12-05T04:59:09;26.00;;;9.63;;
68212;SDS011;55035;47.792;8.724;2022-12-05T05:01:37;30.25;;;9.93;;
68212;SDS011;55035;47.792;8.724;2022-12-05T05:04:06;27.08;;;10.75;;
68212;SDS011;55035;47.792;8.724;2022-12-05T05:06:35;27.45;;;8.95;;
68212;SDS011;55035;47.792;8.724;2022-12-05T05:09:02;29.67;;;10.45;;
68212;SDS011;55035;47.792;8.724;2022-12-05T05:11:33;26.43;;;9.27;;
68212;SDS011;55035;47.792;8.724;2022-12-05T05:14:00;28.95;;;10.82;;
68212;SDS011;55035;47.792;8.724;2022-12-05T05:16:29;31.67;;;11.07;;
68212;SDS011;55035;47.792;8.724;2022-12-05T05:18:56;24.10;;;9.15;;
68212;SDS011;55035;47.792;8.724;2022-12-05T05:21:23;28.50;;;9.80;;
68212;SDS011;55035;47.792;8.724;2022-12-05T05:23:50;29.40;;;9.40;;
68212;SDS011;55035;47.792;8.724;2022-12-05T05:26:18;25.73;;;9.15;;
68212;SDS011;55035;47.792;8.724;2022-12-05T05:28:46;27.25;;;10.45;;
68212;SDS011;55035;47.792;8.724;2022-12-05T05:31:13;26.65;;;9.93;;
68212;SDS011;55035;47.792;8.724;2022-12-05T05:33:41;31.50;;;10.93;;
68212;SDS011;55035;47.792;8.724;2022-12-05T05:36:08;29.07;;;11.10;;
68212;SDS011;55035;47.792;8.724;2022-12-05T05:38:35;32.22;;;11.52;;
68212;SDS011;55035;47.792;8.724;2022-12-05T05:41:03;34.17;;;12.65;;
68212;SDS011;55035;47.792;8.724;2022-12-05T05:43:30;34.55;;;11.77;;
68212;SDS011;55035;47.792;8.724;2022-12-05T05:45:58;32.88;;;12.50;;
68212;SDS011;55035;47.792;8.724;2022-12-05T05:48:29;48.43;;;17.90;;
68212;SDS011;55035;47.792;8.724;2022-12-05T05:50:57;41.88;;;15.52;;
68212;SDS011;55035;47.792;8.724;2022-12-05T05:53:24;66.28;;;23.20;;
68212;SDS011;55035;47.792;8.724;2022-12-05T05:55:50;40.05;;;15.23;;
68212;SDS011;55035;47.792;8.724;2022-12-05T05:58:17;26.65;;;10.43;;
68212;SDS011;55035;47.792;8.724;2022-12-05T06:00:45;23.57;;;9.73;;
68212;SDS011;55035;47.792;8.724;2022-12-05T06:03:13;28.15;;;10.00;;
68212;SDS011;55035;47.792;8.724;2022-12-05T06:05:40;25.67;;;9.20;;
68212;SDS011;55035;47.792;8.724;2022-12-05T06:08:07;25.23;;;9.60;;
68212;SDS011;55035;47.792;8.724;2022-12-05T06:10:34;25.30;;;9.18;;
68212;SDS011;55035;47.792;8.724;2022-12-05T06:13:03;25.87;;;9.27;;
68212;SDS011;55035;47.792;8.724;2022-12-05T06:15:31;23.55;;;9.50;;
68212;SDS011;55035;47.792;8.724;2022-12-05T06:17:58;27.88;;;9.88;;
68212;SDS011;55035;47.792;8.724;2022-12-05T06:20:26;27.73;;;10.07;;
68212;SDS011;55035;47.792;8.724;2022-12-05T06:22:53;33.33;;;13.07;;
68212;SDS011;55035;47.792;8.724;2022-12-05T06:25:20;24.00;;;9.53;;
68212;SDS011;55035;47.792;8.724;2022-12-05T06:27:47;24.15;;;7.85;;
68212;SDS011;55035;47.792;8.724;2022-12-05T06:30:14;27.33;;;10.13;;
68212;SDS011;55035;47.792;8.724;2022-12-05T06:32:40;25.33;;;9.10;;
68212;SDS011;55035;47.792;8.724;2022-12-05T06:35:07;21.58;;;8.13;;
68212;SDS011;55035;47.792;8.724;2022-12-05T06:37:41;18.93;;;7.60;;
68212;SDS011;55035;47.792;8.724;2022-12-05T06:40:08;22.85;;;8.70;;
68212;SDS011;55035;47.792;8.724;2022-12-05T06:42:35;24.15;;;8.40;;
68212;SDS011;55035;47.792;8.724;2022-12-05T06:45:03;22.58;;;8.38;;
68212;SDS011;55035;47.792;8.724;2022-12-05T06:47:31;21.33;;;8.20;;
68212;SDS011;55035;47.792;8.724;2022-12-05T06:49:57;20.47;;;8.00;;
68212;SDS011;55035;47.792;8.724;2022-12-05T06:52:24;19.40;;;7.78;;
68212;SDS011;55035;47.792;8.724;2022-12-05T06:54:52;20.98;;;8.07;;
68212;SDS011;55035;47.792;8.724;2022-12-05T06:57:19;24.50;;;9.35;;
68212;SDS011;55035;47.792;8.724;2022-12-05T06:59:46;23.40;;;8.80;;
68212;SDS011;55035;47.792;8.724;2022-12-05T07:02:13;22.60;;;9.00;;
68212;SDS011;55035;47.792;8.724;2022-12-05T07:04:39;22.50;;;9.10;;
68212;SDS011;55035;47.792;8.724;2022-12-05T07:07:06;24.70;;;9.77;;
68212;SDS011;55035;47.792;8.724;2022-12-05T07:09:33;24.92;;;9.68;;
68212;SDS011;55035;47.792;8.724;2022-12-05T07:12:15;23.20;;;9.27;;
68212;SDS011;55035;47.792;8.724;2022-12-05T07:14:43;26.17;;;10.00;;
68212;SDS011;55035;47.792;8.724;2022-12-05T07:17:12;24.83;;;9.98;;
68212;SDS011;55035;47.792;8.724;2022-12-05T07:19:39;27.15;;;9.35;;
68212;SDS011;55035;47.792;8.724;2022-12-05T07:22:06;25.27;;;10.15;;
68212;SDS011;55035;47.792;8.724;2022-12-05T07:24:33;24.20;;;9.50;;
68212;SDS011;55035;47.792;8.724;2022-12-05T07:27:00;24.67;;;9.00;;
68212;SDS011;55035;47.792;8.724;2022-12-05T07:29:28;23.15;;;9.00;;
68212;SDS011;55035;47.792;8.724;2022-12-05T07:31:55;25.00;;;9.18;;
68212;SDS011;55035;47.792;8.724;2022-12-05T07:34:21;23.83;;;8.95;;
68212;SDS011;55035;47.792;8.724;2022-12-05T07:36:48;23.47;;;9.40;;
68212;SDS011;55035;47.792;8.724;2022-12-05T07:39:15;22.88;;;8.93;;
68212;SDS011;55035;47.792;8.724;2022-12-05T07:41:42;22.52;;;8.35;;
68212;SDS011;55035;47.792;8.724;2022-12-05T07:44:14;23.40;;;8.90;;
68212;SDS011;55035;47.792;8.724;2022-12-05T07:46:42;26.08;;;9.40;;
68212;SDS011;55035;47.792;8.724;2022-12-05T07:49:09;25.27;;;9.03;;
68212;SDS011;55035;47.792;8.724;2022-12-05T07:51:39;24.20;;;8.40;;
68212;SDS011;55035;47.792;8.724;2022-12-05T07:56:48;24.45;;;8.80;;
68212;SDS011;55035;47.792;8.724;2022-12-05T07:59:15;25.92;;;9.88;;
68212;SDS011;55035;47.792;8.724;2022-12-05T08:01:46;26.80;;;9.40;;
68212;SDS011;55035;47.792;8.724;2022-12-05T08:04:13;27.10;;;9.60;;
68212;SDS011;55035;47.792;8.724;2022-12-05T08:06:40;26.17;;;10.40;;
68212;SDS011;55035;47.792;8.724;2022-12-05T08:09:07;24.27;;;9.35;;
68212;SDS011;55035;47.792;8.724;2022-12-05T08:11:34;26.52;;;9.45;;
68212;SDS011;55035;47.792;8.724;2022-12-05T08:14:02;23.87;;;9.17;;
68212;SDS011;55035;47.792;8.724;2022-12-05T08:16:31;29.50;;;9.82;;
68212;SDS011;55035;47.792;8.724;2022-12-05T08:19:00;28.38;;;10.32;;
68212;SDS011;55035;47.792;8.724;2022-12-05T08:21:27;30.33;;;10.20;;
68212;SDS011;55035;47.792;8.724;2022-12-05T08:23:54;27.27;;;10.30;;
68212;SDS011;55035;47.792;8.724;2022-12-05T08:26:21;26.77;;;9.90;;
68212;SDS011;55035;47.792;8.724;2022-12-05T08:28:49;25.50;;;9.40;;
68212;SDS011;55035;47.792;8.724;2022-12-05T08:31:17;29.98;;;10.68;;
68212;SDS011;55035;47.792;8.724;2022-12-05T08:33:44;24.92;;;10.25;;
68212;SDS011;55035;47.792;8.724;2022-12-05T08:36:13;27.05;;;10.13;;
68212;SDS011;55035;47.792;8.724;2022-12-05T08:38:41;26.90;;;9.77;;
68212;SDS011;55035;47.792;8.724;2022-12-05T08:41:09;23.45;;;9.15;;
68212;SDS011;55035;47.792;8.724;2022-12-05T08:43:36;25.50;;;9.70;;
68212;SDS011;55035;47.792;8.724;2022-12-05T08:46:04;24.45;;;9.40;;
68212;SDS011;55035;47.792;8.724;2022-12-05T08:48:31;27.67;;;9.75;;
68212;SDS011;55035;47.792;8.724;2022-12-05T08:50:59;26.27;;;10.63;;
68212;SDS011;55035;47.792;8.724;2022-12-05T08:53:32;35.45;;;13.10;;
68212;SDS011;55035;47.792;8.724;2022-12-05T08:56:00;43.22;;;17.08;;
68212;SDS011;55035;47.792;8.724;2022-12-05T08:58:27;27.00;;;9.77;;
68212;SDS011;55035;47.792;8.724;2022-12-05T09:01:01;23.95;;;9.43;;
68212;SDS011;55035;47.792;8.724;2022-12-05T09:03:29;23.93;;;8.70;;
68212;SDS011;55035;47.792;8.724;2022-12-05T09:06:03;21.30;;;8.13;;
68212;SDS011;55035;47.792;8.724;2022-12-05T09:08:30;21.92;;;8.40;;
68212;SDS011;55035;47.792;8.724;2022-12-05T09:10:59;21.58;;;8.15;;
68212;SDS011;55035;47.792;8.724;2022-12-05T09:13:25;22.23;;;8.20;;
68212;SDS011;55035;47.792;8.724;2022-12-05T09:15:52;21.80;;;8.47;;
68212;SDS011;55035;47.792;8.724;2022-12-05T09:18:20;22.27;;;8.02;;
68212;SDS011;55035;47.792;8.724;2022-12-05T09:20:47;22.83;;;9.25;;
68212;SDS011;55035;47.792;8.724;2022-12-05T09:23:14;22.92;;;9.00;;
68212;SDS011;55035;47.792;8.724;2022-12-05T09:25:41;23.02;;;8.98;;
68212;SDS011;55035;47.792;8.724;2022-12-05T09:28:09;20.17;;;8.47;;
68212;SDS011;55035;47.792;8.724;2022-12-05T09:30:36;22.20;;;8.45;;
68212;SDS011;55035;47.792;8.724;2022-12-05T09:33:03;17.98;;;7.78;;
68212;SDS011;55035;47.792;8.724;2022-12-05T09:35:30;21.52;;;7.90;;
68212;SDS011;55035;47.792;8.724;2022-12-05T09:37:56;21.02;;;7.93;;
68212;SDS011;55035;47.792;8.724;2022-12-05T09:40:23;19.60;;;7.83;;
68212;SDS011;55035;47.792;8.724;2022-12-05T09:42:53;20.45;;;7.63;;
68212;SDS011;55035;47.792;8.724;2022-12-05T09:45:25;20.42;;;7.68;;
68212;SDS011;55035;47.792;8.724;2022-12-05T09:47:56;16.40;;;6.57;;
68212;SDS011;55035;47.792;8.724;2022-12-05T09:50:27;17.10;;;7.20;;
68212;SDS011;55035;47.792;8.724;2022-12-05T09:53:04;19.23;;;7.43;;
68212;SDS011;55035;47.792;8.724;2022-12-05T09:55:34;19.13;;;7.55;;
68212;SDS011;55035;47.792;8.724;2022-12-05T09:58:02;21.88;;;7.93;;
68212;SDS011;55035;47.792;8.724;2022-12-05T10:00:32;21.50;;;8.07;;
68212;SDS011;55035;47.792;8.724;2022-12-05T10:03:03;22.23;;;8.18;;
68212;SDS011;55035;47.792;8.724;2022-12-05T10:05:35;19.37;;;7.27;;
68212;SDS011;55035;47.792;8.724;2022-12-05T10:08:06;18.20;;;7.25;;
68212;SDS011;55035;47.792;8.724;2022-12-05T10:10:40;17.95;;;6.70;;
68212;SDS011;55035;47.792;8.724;2022-12-05T10:13:27;15.95;;;6.60;;
68212;SDS011;55035;47.792;8.724;2022-12-05T10:15:59;17.55;;;6.70;;
68212;SDS011;55035;47.792;8.724;2022-12-05T10:18:29;17.40;;;6.30;;
68212;SDS011;55035;47.792;8.724;2022-12-05T10:21:01;16.23;;;6.82;;
68212;SDS011;55035;47.792;8.724;2022-12-05T10:23:54;18.80;;;6.50;;
68212;SDS011;55035;47.792;8.724;2022-12-05T10:26:23;19.42;;;7.22;;
68212;SDS011;55035;47.792;8.724;2022-12-05T10:28:55;16.38;;;6.55;;
68212;SDS011;55035;47.792;8.724;2022-12-05T10:31:28;16.93;;;6.20;;
68212;SDS011;55035;47.792;8.724;2022-12-05T10:33:57;16.33;;;6.22;;
68212;SDS011;55035;47.792;8.724;2022-12-05T10:36:26;16.85;;;7.25;;
68212;SDS011;55035;47.792;8.724;2022-12-05T10:38:53;17.27;;;6.63;;
68212;SDS011;55035;47.792;8.724;2022-12-05T10:41:24;15.25;;;6.28;;
68212;SDS011;55035;47.792;8.724;2022-12-05T10:43:53;17.33;;;6.73;;
68212;SDS011;55035;47.792;8.724;2022-12-05T10:46:20;15.60;;;5.90;;
68212;SDS011;55035;47.792;8.724;2022-12-05T10:48:49;13.07;;;5.30;;
68212;SDS011;55035;47.792;8.724;2022-12-05T10:51:17;11.52;;;4.30;;
68212;SDS011;55035;47.792;8.724;2022-12-05T10:53:50;12.23;;;4.38;;
68212;SDS011;55035;47.792;8.724;2022-12-05T10:59:04;9.27;;;3.10;;
68212;SDS011;55035;47.792;8.724;2022-12-05T11:01:31;9.45;;;3.70;;
68212;SDS011;55035;47.792;8.724;2022-12-05T11:04:00;10.40;;;3.72;;
68212;SDS011;55035;47.792;8.724;2022-12-05T11:06:31;9.35;;;3.10;;
68212;SDS011;55035;47.792;8.724;2022-12-05T11:09:03;10.13;;;3.13;;
68212;SDS011;55035;47.792;8.724;2022-12-05T11:11:31;8.43;;;3.00;;
68212;SDS011;55035;47.792;8.724;2022-12-05T11:13:59;10.10;;;3.50;;
68212;SDS011;55035;47.792;8.724;2022-12-05T11:16:27;8.55;;;3.10;;
68212;SDS011;55035;47.792;8.724;2022-12-05T11:18:55;9.95;;;3.50;;
68212;SDS011;55035;47.792;8.724;2022-12-05T11:21:23;8.87;;;2.97;;
68212;SDS011;55035;47.792;8.724;2022-12-05T11:23:50;7.78;;;2.75;;
68212;SDS011;55035;47.792;8.724;2022-12-05T11:26:18;8.55;;;3.10;;
68212;SDS011;55035;47.792;8.724;2022-12-05T11:28:59;9.27;;;3.25;;
68212;SDS011;55035;47.792;8.724;2022-12-05T11:31:26;8.60;;;2.83;;
68212;SDS011;55035;47.792;8.724;2022-12-05T11:33:59;10.73;;;2.93;;
68212;SDS011;55035;47.792;8.724;2022-12-05T11:36:30;9.77;;;3.35;;
68212;SDS011;55035;47.792;8.724;2022-12-05T11:39:01;9.27;;;3.17;;
68212;SDS011;55035;47.792;8.724;2022-12-05T11:41:32;9.10;;;3.33;;
68212;SDS011;55035;47.792;8.724;2022-12-05T11:44:11;10.00;;;3.38;;
68212;SDS011;55035;47.792;8.724;2022-12-05T11:46:45;9.73;;;2.90;;
68212;SDS011;55035;47.792;8.724;2022-12-05T11:49:23;12.35;;;2.97;;
68212;SDS011;55035;47.792;8.724;2022-12-05T11:51:55;11.57;;;3.33;;
68212;SDS011;55035;47.792;8.724;2022-12-05T11:54:46;9.52;;;3.80;;
68212;SDS011;55035;47.792;8.724;2022-12-05T11:57:17;12.60;;;3.90;;
68212;SDS011;55035;47.792;8.724;2022-12-05T12:00:00;10.93;;;4.03;;
68212;SDS011;55035;47.792;8.724;2022-12-05T12:02:42;11.45;;;3.75;;
68212;SDS011;55035;47.792;8.724;2022-12-05T12:05:17;11.90;;;4.30;;
68212;SDS011;55035;47.792;8.724;2022-12-05T12:07:58;13.00;;;4.70;;
68212;SDS011;55035;47.792;8.724;2022-12-05T12:10:30;11.93;;;5.18;;
68212;SDS011;55035;47.792;8.724;2022-12-05T12:13:02;14.00;;;5.00;;
68212;SDS011;55035;47.792;8.724;2022-12-05T12:15:34;12.32;;;4.55;;
68212;SDS011;55035;47.792;8.724;2022-12-05T12:18:05;12.35;;;5.10;;
68212;SDS011;55035;47.792;8.724;2022-12-05T12:20:38;10.95;;;4.53;;
68212;SDS011;55035;47.792;8.724;2022-12-05T12:23:17;12.45;;;4.65;;
68212;SDS011;55035;47.792;8.724;2022-12-05T12:25:49;12.33;;;4.27;;
68212;SDS011;55035;47.792;8.724;2022-12-05T12:28:24;12.52;;;4.40;;
68212;SDS011;55035;47.792;8.724;2022-12-05T12:30:58;11.73;;;5.07;;
68212;SDS011;55035;47.792;8.724;2022-12-05T12:33:29;15.05;;;4.97;;
68212;SDS011;55035;47.792;8.724;2022-12-05T12:35:59;11.13;;;4.60;;
68212;SDS011;55035;47.792;8.724;2022-12-05T12:38:36;12.53;;;5.13;;
68212;SDS011;55035;47.792;8.724;2022-12-05T12:41:07;12.77;;;5.03;;
68212;SDS011;55035;47.792;8.724;2022-12-05T12:43:40;13.38;;;4.78;;
68212;SDS011;55035;47.792;8.724;2022-12-05T12:46:12;11.48;;;4.85;;
68212;SDS011;55035;47.792;8.724;2022-12-05T12:48:44;10.85;;;5.00;;
68212;SDS011;55035;47.792;8.724;2022-12-05T12:51:14;11.67;;;4.63;;
68212;SDS011;55035;47.792;8.724;2022-12-05T12:53:46;11.18;;;4.60;;
68212;SDS011;55035;47.792;8.724;2022-12-05T12:56:20;11.00;;;4.65;;
68212;SDS011;55035;47.792;8.724;2022-12-05T12:58:50;11.85;;;4.40;;
68212;SDS011;55035;47.792;8.724;2022-12-05T13:01:23;11.40;;;4.75;;
68212;SDS011;55035;47.792;8.724;2022-12-05T13:03:55;11.23;;;4.70;;
68212;SDS011;55035;47.792;8.724;2022-12-05T13:06:28;11.38;;;4.50;;
68212;SDS011;55035;47.792;8.724;2022-12-05T13:08:57;10.90;;;4.55;;
68212;SDS011;55035;47.792;8.724;2022-12-05T13:11:25;12.52;;;5.03;;
68212;SDS011;55035;47.792;8.724;2022-12-05T13:13:55;11.02;;;4.40;;
68212;SDS011;55035;47.792;8.724;2022-12-05T13:16:25;13.83;;;4.90;;
68212;SDS011;55035;47.792;8.724;2022-12-05T13:18:53;12.30;;;5.60;;
68212;SDS011;55035;47.792;8.724;2022-12-05T13:21:24;13.98;;;5.63;;
68212;SDS011;55035;47.792;8.724;2022-12-05T13:23:52;13.05;;;4.75;;
68212;SDS011;55035;47.792;8.724;2022-12-05T13:26:21;11.85;;;4.90;;
68212;SDS011;55035;47.792;8.724;2022-12-05T13:28:50;11.17;;;4.80;;
68212;SDS011;55035;47.792;8.724;2022-12-05T13:31:18;11.57;;;5.15;;
68212;SDS011;55035;47.792;8.724;2022-12-05T13:33:58;10.93;;;4.78;;
68212;SDS011;55035;47.792;8.724;2022-12-05T13:36:24;12.65;;;4.97;;
68212;SDS011;55035;47.792;8.724;2022-12-05T13:39:16;12.43;;;5.10;;
68212;SDS011;55035;47.792;8.724;2022-12-05T13:42:03;11.47;;;4.90;;
68212;SDS011;55035;47.792;8.724;2022-12-05T13:44:40;13.90;;;5.57;;
68212;SDS011;55035;47.792;8.724;2022-12-05T13:47:18;11.57;;;4.70;;
68212;SDS011;55035;47.792;8.724;2022-12-05T13:49:51;14.75;;;5.75;;
68212;SDS011;55035;47.792;8.724;2022-12-05T13:52:20;13.98;;;5.43;;
68212;SDS011;55035;47.792;8.724;2022-12-05T13:54:53;11.63;;;4.93;;
68212;SDS011;55035;47.792;8.724;2022-12-05T14:00:20;12.52;;;5.15;;
68212;SDS011;55035;47.792;8.724;2022-12-05T14:02:53;12.45;;;5.57;;
68212;SDS011;55035;47.792;8.724;2022-12-05T14:05:58;11.65;;;5.57;;
68212;SDS011;55035;47.792;8.724;2022-12-05T14:08:51;11.97;;;5.17;;
68212;SDS011;55035;47.792;8.724;2022-12-05T14:11:20;12.32;;;4.75;;
68212;SDS011;55035;47.792;8.724;2022-12-05T14:13:46;13.40;;;5.50;;
68212;SDS011;55035;47.792;8.724;2022-12-05T14:22:23;13.00;;;5.50;;
68212;SDS011;55035;47.792;8.724;2022-12-05T14:24:54;13.98;;;5.50;;
68212;SDS011;55035;47.792;8.724;2022-12-05T14:27:26;11.55;;;5.00;;
68212;SDS011;55035;47.792;8.724;2022-12-05T14:29:58;13.95;;;5.30;;
68212;SDS011;55035;47.792;8.724;2022-12-05T14:32:28;12.93;;;5.70;;
68212;SDS011;55035;47.792;8.724;2022-12-05T14:34:56;12.90;;;5.30;;
68212;SDS011;55035;47.792;8.724;2022-12-05T14:37:29;13.07;;;5.10;;
68212;SDS011;55035;47.792;8.724;2022-12-05T14:39:58;12.57;;;5.35;;
68212;SDS011;55035;47.792;8.724;2022-12-05T14:42:28;12.18;;;5.22;;
68212;SDS011;55035;47.792;8.724;2022-12-05T14:44:57;13.23;;;5.57;;
68212;SDS011;55035;47.792;8.724;2022-12-05T14:47:31;13.70;;;5.70;;
68212;SDS011;55035;47.792;8.724;2022-12-05T14:50:20;14.35;;;5.85;;
68212;SDS011;55035;47.792;8.724;2022-12-05T14:55:30;15.23;;;5.78;;
68212;SDS011;55035;47.792;8.724;2022-12-05T14:57:57;12.13;;;5.45;;
68212;SDS011;55035;47.792;8.724;2022-12-05T15:00:24;13.83;;;5.60;;
68212;SDS011;55035;47.792;8.724;2022-12-05T15:02:51;12.75;;;5.25;;
68212;SDS011;55035;47.792;8.724;2022-12-05T15:05:21;13.02;;;6.10;;
68212;SDS011;55035;47.792;8.724;2022-12-05T15:07:49;15.57;;;6.40;;